createdAt,value
2022-11-19T00:01:16.489Z,5.14
2022-11-19T00:03:48.770Z,5.07
2022-11-19T00:06:21.761Z,5.05
2022-11-19T00:08:51.092Z,5.03
2022-11-19T00:11:40.877Z,5.05
2022-11-19T00:14:08.359Z,5.01
2022-11-19T00:16:36.065Z,4.96
2022-11-19T00:19:03.822Z,4.95
2022-11-19T00:21:31.450Z,4.96
2022-11-19T00:24:00.742Z,4.93
2022-11-19T00:26:28.497Z,4.86
2022-11-19T00:28:56.396Z,4.82
2022-11-19T00:31:24.062Z,4.80
2022-11-19T00:33:54.143Z,4.74
2022-11-19T00:36:22.370Z,4.69
2022-11-19T00:38:50.010Z,4.67
2022-11-19T00:41:19.253Z,4.67
2022-11-19T00:43:50.371Z,4.69
2022-11-19T00:46:19.558Z,4.77
2022-11-19T00:48:48.595Z,4.76
2022-11-19T00:51:17.667Z,4.80
2022-11-19T00:53:45.645Z,4.89
2022-11-19T00:56:14.784Z,4.89
2022-11-19T00:58:44.351Z,4.93
2022-11-19T01:01:12.645Z,4.91
2022-11-19T01:03:41.142Z,4.83
2022-11-19T01:06:09.732Z,4.82
2022-11-19T01:08:37.736Z,4.82
2022-11-19T01:11:06.519Z,4.83
2022-11-19T01:13:37.537Z,4.82
2022-11-19T01:16:10.224Z,4.86
2022-11-19T01:18:38.938Z,4.88
2022-11-19T01:21:10.552Z,4.93
2022-11-19T01:23:38.912Z,4.95
2022-11-19T01:26:07.565Z,5.00
2022-11-19T01:28:35.843Z,5.01
2022-11-19T01:31:09.937Z,5.02
2022-11-19T01:33:38.664Z,5.06
2022-11-19T01:36:09.235Z,5.08
2022-11-19T01:38:37.132Z,4.98
2022-11-19T01:41:05.832Z,5.09
2022-11-19T01:43:45.607Z,5.07
2022-11-19T01:46:16.994Z,5.16
2022-11-19T01:48:50.140Z,5.17
2022-11-19T01:51:23.595Z,5.17
2022-11-19T01:53:52.870Z,5.19
2022-11-19T01:56:22.505Z,5.19
2022-11-19T01:58:55.796Z,5.11
2022-11-19T02:01:25.017Z,5.19
2022-11-19T02:03:53.735Z,5.18
2022-11-19T02:06:21.742Z,5.23
2022-11-19T02:08:51.552Z,5.19
2022-11-19T02:11:40.918Z,5.24
2022-11-19T02:14:36.661Z,5.23
2022-11-19T02:17:12.992Z,5.27
2022-11-19T02:20:12.228Z,5.27
2022-11-19T02:23:06.286Z,5.22
2022-11-19T02:25:50.292Z,5.19
2022-11-19T02:28:28.693Z,5.25
2022-11-19T02:31:04.823Z,5.26
2022-11-19T02:33:41.892Z,5.29
2022-11-19T02:36:15.911Z,5.33
2022-11-19T02:38:49.657Z,5.31
2022-11-19T02:41:37.856Z,5.32
2022-11-19T02:44:33.851Z,5.29
2022-11-19T02:47:07.751Z,5.32
2022-11-19T02:49:39.190Z,5.31
2022-11-19T02:52:07.137Z,5.34
2022-11-19T02:54:37.212Z,5.36
2022-11-19T02:57:05.069Z,5.37
2022-11-19T02:59:56.689Z,5.38
2022-11-19T03:02:47.137Z,5.41
2022-11-19T03:05:19.421Z,5.40
2022-11-19T03:07:47.218Z,5.42
2022-11-19T03:10:16.201Z,5.40
2022-11-19T03:12:51.156Z,5.38
2022-11-19T03:15:55.197Z,5.39
2022-11-19T03:18:33.052Z,5.38
2022-11-19T03:21:08.417Z,5.41
2022-11-19T03:23:41.125Z,5.38
2022-11-19T03:26:19.507Z,5.40
2022-11-19T03:28:49.041Z,5.36
2022-11-19T03:31:19.905Z,5.40
2022-11-19T03:33:53.441Z,5.36
2022-11-19T03:36:25.381Z,5.39
2022-11-19T03:38:56.761Z,5.42
2022-11-19T03:41:27.122Z,5.47
2022-11-19T03:43:59.791Z,5.48
2022-11-19T03:46:30.280Z,5.48
2022-11-19T03:49:01.386Z,5.43
2022-11-19T03:51:38.053Z,5.44
2022-11-19T03:54:05.912Z,5.43
2022-11-19T03:56:37.829Z,5.42
2022-11-19T03:59:08.464Z,5.38
2022-11-19T04:01:36.808Z,5.38
2022-11-19T04:04:24.360Z,5.38
2022-11-19T04:06:52.057Z,5.38
2022-11-19T04:09:19.904Z,5.38
2022-11-19T04:14:14.308Z,5.35
2022-11-19T04:16:41.985Z,5.35
2022-11-19T04:19:10.996Z,5.32
2022-11-19T04:21:38.774Z,5.34
2022-11-19T04:24:07.274Z,5.30
2022-11-19T04:26:34.925Z,5.32
2022-11-19T04:29:02.738Z,5.32
2022-11-19T04:31:30.380Z,5.27
2022-11-19T04:33:57.988Z,5.25
2022-11-19T04:36:26.988Z,5.23
2022-11-19T04:38:54.730Z,5.19
2022-11-19T04:41:22.423Z,5.17
2022-11-19T04:43:50.054Z,5.15
2022-11-19T04:46:17.812Z,5.12
2022-11-19T04:48:45.412Z,5.13
2022-11-19T04:51:13.082Z,5.07
2022-11-19T04:53:42.048Z,5.05
2022-11-19T04:56:09.682Z,5.00
2022-11-19T04:58:37.368Z,4.96
2022-11-19T05:01:05.537Z,4.96
2022-11-19T05:03:33.280Z,4.93
2022-11-19T05:06:01.399Z,4.89
2022-11-19T05:08:29.112Z,4.91
2022-11-19T05:10:58.146Z,4.94
2022-11-19T05:13:25.759Z,4.95
2022-11-19T05:15:53.410Z,5.00
2022-11-19T05:18:21.095Z,5.01
2022-11-19T05:20:48.938Z,5.08
2022-11-19T05:23:16.628Z,5.10
2022-11-19T05:25:44.317Z,5.11
2022-11-19T05:28:13.372Z,5.12
2022-11-19T05:30:40.991Z,5.08
2022-11-19T05:33:20.726Z,5.03
2022-11-19T05:35:48.366Z,4.92
2022-11-19T05:38:16.028Z,4.90
2022-11-19T05:40:45.187Z,4.95
2022-11-19T05:43:14.309Z,4.95
2022-11-19T05:45:42.040Z,4.95
2022-11-19T05:48:09.710Z,4.95
2022-11-19T05:50:37.363Z,4.90
2022-11-19T05:53:05.167Z,4.92
2022-11-19T05:55:34.999Z,4.90
2022-11-19T05:58:02.641Z,4.88
2022-11-19T06:00:32.166Z,4.86
2022-11-19T06:02:59.829Z,4.86
2022-11-19T06:05:27.476Z,4.85
2022-11-19T06:07:55.121Z,4.87
2022-11-19T06:10:22.759Z,4.81
2022-11-19T06:12:50.430Z,4.84
2022-11-19T06:15:18.232Z,4.86
2022-11-19T06:17:47.880Z,4.84
2022-11-19T06:20:15.665Z,4.83
2022-11-19T06:22:43.325Z,4.84
2022-11-19T06:25:11.009Z,4.88
2022-11-19T06:27:38.655Z,4.90
2022-11-19T06:30:07.625Z,4.92
2022-11-19T06:32:35.471Z,4.93
2022-11-19T06:35:05.129Z,4.95
2022-11-19T06:37:32.748Z,4.94
2022-11-19T06:40:00.431Z,4.93
2022-11-19T06:42:49.801Z,4.95
2022-11-19T06:45:18.610Z,4.96
2022-11-19T06:47:49.911Z,4.94
2022-11-19T06:50:19.244Z,4.96
2022-11-19T06:52:46.879Z,5.02
2022-11-19T06:55:14.545Z,5.05
2022-11-19T06:57:42.160Z,5.09
2022-11-19T07:00:11.314Z,5.09
2022-11-19T07:02:39.001Z,5.13
2022-11-19T07:05:07.573Z,5.15
2022-11-19T07:07:36.583Z,5.22
2022-11-19T07:10:04.432Z,5.18
2022-11-19T07:12:32.067Z,5.20
2022-11-19T07:15:03.955Z,5.20
2022-11-19T07:17:32.351Z,5.21
2022-11-19T07:20:00.146Z,5.23
2022-11-19T07:22:28.191Z,5.14
2022-11-19T07:24:57.234Z,5.19
2022-11-19T07:27:25.047Z,5.18
2022-11-19T07:29:52.724Z,5.22
2022-11-19T07:32:20.393Z,5.23
2022-11-19T07:34:48.034Z,5.38
2022-11-19T07:37:19.091Z,5.59
2022-11-19T07:39:46.925Z,5.66
2022-11-19T07:42:33.489Z,5.78
2022-11-19T07:45:01.138Z,5.83
2022-11-19T07:47:28.773Z,5.82
2022-11-19T07:49:56.459Z,5.84
2022-11-19T07:52:24.173Z,5.81
2022-11-19T07:54:51.780Z,5.80
2022-11-19T07:57:24.615Z,5.82
2022-11-19T07:59:54.839Z,5.81
2022-11-19T08:02:22.469Z,5.77
2022-11-19T08:04:50.101Z,5.74
2022-11-19T08:07:18.326Z,5.78
2022-11-19T08:09:48.279Z,5.81
2022-11-19T08:12:15.930Z,5.87
2022-11-19T08:14:44.936Z,5.93
2022-11-19T08:17:30.379Z,6.11
2022-11-19T08:19:57.989Z,6.37
2022-11-19T08:22:26.953Z,6.59
2022-11-19T08:24:54.657Z,6.76
2022-11-19T08:27:22.311Z,7.16
2022-11-19T08:29:51.287Z,7.46
2022-11-19T08:32:18.979Z,7.65
2022-11-19T08:34:46.614Z,7.67
2022-11-19T08:37:14.527Z,7.80
2022-11-19T08:39:42.167Z,8.00
2022-11-19T08:42:30.608Z,8.14
2022-11-19T08:44:59.586Z,8.16
2022-11-19T08:47:27.243Z,8.21
2022-11-19T08:49:54.917Z,8.09
2022-11-19T08:52:22.575Z,8.17
2022-11-19T08:54:50.201Z,8.30
2022-11-19T08:57:17.862Z,8.27
2022-11-19T08:59:45.483Z,8.07
2022-11-19T09:02:14.439Z,8.37
2022-11-19T09:04:42.394Z,8.34
2022-11-19T09:07:10.062Z,8.41
2022-11-19T09:09:37.811Z,8.52
2022-11-19T09:12:06.050Z,8.77
2022-11-19T09:14:33.719Z,9.04
2022-11-19T09:17:01.407Z,9.34
2022-11-19T09:19:30.371Z,9.38
2022-11-19T09:21:58.027Z,9.04
2022-11-19T09:24:25.706Z,8.82
2022-11-19T09:26:59.539Z,8.40
2022-11-19T09:29:29.615Z,8.19
2022-11-19T09:31:57.259Z,7.91
2022-11-19T09:34:24.980Z,8.07
2022-11-19T09:36:54.044Z,8.09
2022-11-19T09:39:21.691Z,8.22
2022-11-19T09:41:55.725Z,8.36
2022-11-19T09:44:36.844Z,8.36
2022-11-19T09:47:12.750Z,8.19
2022-11-19T09:49:48.211Z,8.16
2022-11-19T09:52:20.883Z,8.32
2022-11-19T09:54:51.138Z,8.28
2022-11-19T09:57:27.795Z,8.21
2022-11-19T09:59:58.335Z,8.29
2022-11-19T10:02:26.110Z,8.41
2022-11-19T10:04:54.633Z,8.38
2022-11-19T10:07:34.172Z,8.32
2022-11-19T10:10:16.515Z,8.21
2022-11-19T10:13:20.286Z,8.26
2022-11-19T10:16:03.134Z,8.31
2022-11-19T10:18:41.505Z,8.23
2022-11-19T10:21:15.414Z,8.10
2022-11-19T10:23:51.205Z,8.06
2022-11-19T10:26:23.102Z,8.03
2022-11-19T10:28:56.177Z,8.09
2022-11-19T10:31:30.243Z,7.99
2022-11-19T10:34:04.576Z,7.98
2022-11-19T10:36:37.322Z,8.05
2022-11-19T10:39:11.880Z,8.10
2022-11-19T10:41:46.320Z,8.11
2022-11-19T10:44:36.611Z,8.13
2022-11-19T10:47:05.571Z,8.13
2022-11-19T10:49:38.977Z,8.20
2022-11-19T10:52:07.581Z,8.31
2022-11-19T10:54:39.094Z,8.36
2022-11-19T10:57:14.320Z,8.43
2022-11-19T10:59:42.623Z,8.60
2022-11-19T11:02:26.514Z,8.72
2022-11-19T11:05:18.188Z,8.81
2022-11-19T11:07:54.391Z,8.67
2022-11-19T11:10:46.619Z,8.72
2022-11-19T11:13:37.816Z,8.66
2022-11-19T11:16:08.334Z,8.75
2022-11-19T11:18:40.431Z,8.83
2022-11-19T11:21:12.006Z,8.96
2022-11-19T11:23:50.818Z,8.99
2022-11-19T11:26:26.023Z,8.86
2022-11-19T11:29:00.086Z,9.06
2022-11-19T11:31:46.402Z,9.12
2022-11-19T11:34:28.817Z,9.07
2022-11-19T11:36:57.366Z,9.28
2022-11-19T11:39:28.093Z,9.21
2022-11-19T11:42:07.173Z,9.34
2022-11-19T11:44:38.265Z,9.53
2022-11-19T11:47:14.040Z,9.38
2022-11-19T11:49:43.833Z,9.29
2022-11-19T11:52:19.132Z,9.07
2022-11-19T11:54:58.579Z,9.07
2022-11-19T11:57:29.553Z,9.12
2022-11-19T11:59:57.646Z,9.67
2022-11-19T12:02:30.275Z,10.03
2022-11-19T12:05:02.170Z,9.89
2022-11-19T12:07:44.697Z,9.88
2022-11-19T12:10:23.632Z,10.07
2022-11-19T12:12:59.645Z,9.53
2022-11-19T12:15:39.378Z,9.42
2022-11-19T12:18:15.224Z,9.30
2022-11-19T12:20:48.826Z,8.69
2022-11-19T12:23:30.242Z,8.58
2022-11-19T12:26:12.870Z,8.64
2022-11-19T12:28:59.142Z,8.86
2022-11-19T12:31:41.701Z,8.76
2022-11-19T12:34:28.209Z,8.49
2022-11-19T12:37:03.370Z,8.41
2022-11-19T12:39:42.232Z,8.25
2022-11-19T12:42:32.369Z,8.23
2022-11-19T12:45:07.266Z,8.23
2022-11-19T12:48:03.812Z,8.39
2022-11-19T12:50:38.973Z,8.48
2022-11-19T12:53:22.419Z,8.32
2022-11-19T12:56:04.336Z,8.23
2022-11-19T12:58:44.525Z,7.97
2022-11-19T13:01:16.675Z,7.91
2022-11-19T13:03:53.525Z,7.94
2022-11-19T13:06:26.188Z,8.13
2022-11-19T13:08:59.316Z,8.29
2022-11-19T13:11:36.317Z,8.35
2022-11-19T13:14:10.769Z,8.51
2022-11-19T13:16:41.277Z,8.70
2022-11-19T13:19:20.615Z,8.87
2022-11-19T13:21:55.008Z,8.76
2022-11-19T13:24:32.020Z,8.74
2022-11-19T13:27:04.788Z,8.99
2022-11-19T13:29:41.243Z,9.66
2022-11-19T13:32:18.898Z,9.74
2022-11-19T13:35:02.213Z,9.26
2022-11-19T13:37:44.571Z,8.85
2022-11-19T13:40:21.038Z,8.54
2022-11-19T13:46:03.829Z,8.26
2022-11-19T13:48:36.587Z,8.51
2022-11-19T13:51:09.716Z,8.99
2022-11-19T13:53:42.221Z,9.03
2022-11-19T13:56:15.197Z,9.36
2022-11-19T13:58:47.861Z,10.01
2022-11-19T14:01:55.727Z,10.43
2022-11-19T14:04:43.381Z,11.77
2022-11-19T14:07:30.861Z,12.02
2022-11-19T14:10:11.404Z,11.49
2022-11-19T14:12:53.143Z,10.98
2022-11-19T14:15:52.042Z,11.64
2022-11-19T14:18:43.383Z,10.97
2022-11-19T14:22:13.990Z,10.02
2022-11-19T14:25:16.895Z,9.47
2022-11-19T14:27:45.528Z,9.13
2022-11-19T14:30:18.974Z,8.86
2022-11-19T14:32:49.689Z,8.69
2022-11-19T14:35:39.555Z,8.55
2022-11-19T14:38:33.164Z,8.54
2022-11-19T14:41:15.252Z,8.30
2022-11-19T14:44:10.667Z,8.27
2022-11-19T14:46:47.922Z,8.18
2022-11-19T14:49:27.490Z,8.12
2022-11-19T14:51:57.639Z,8.11
2022-11-19T14:54:38.556Z,8.02
2022-11-19T14:57:17.873Z,8.06
2022-11-19T14:59:52.401Z,7.93
2022-11-19T15:02:26.128Z,7.86
2022-11-19T15:04:58.523Z,7.84
2022-11-19T15:07:36.262Z,7.78
2022-11-19T15:10:12.067Z,7.81
2022-11-19T15:13:02.417Z,7.82
2022-11-19T15:15:38.513Z,7.77
2022-11-19T15:18:35.955Z,7.65
2022-11-19T15:21:22.607Z,7.75
2022-11-19T15:24:04.606Z,7.63
2022-11-19T15:26:45.275Z,7.55
2022-11-19T15:29:23.468Z,7.46
2022-11-19T15:32:16.093Z,7.44
2022-11-19T15:35:13.554Z,7.38
2022-11-19T15:37:49.154Z,7.42
2022-11-19T15:40:19.853Z,7.46
2022-11-19T15:42:52.882Z,7.42
2022-11-19T15:45:24.498Z,7.46
2022-11-19T15:47:55.772Z,7.48
2022-11-19T15:50:25.502Z,7.48
2022-11-19T15:53:00.352Z,7.49
2022-11-19T15:55:30.775Z,7.58
2022-11-19T15:58:03.141Z,7.59
2022-11-19T16:00:32.882Z,7.58
2022-11-19T16:03:01.905Z,7.53
2022-11-19T16:05:32.818Z,7.49
2022-11-19T16:08:06.427Z,7.42
2022-11-19T16:10:36.523Z,7.45
2022-11-19T16:13:38.039Z,7.42
2022-11-19T16:16:33.543Z,7.46
2022-11-19T16:19:01.257Z,7.40
2022-11-19T16:21:33.351Z,7.33
2022-11-19T16:24:19.952Z,7.34
2022-11-19T16:26:48.650Z,7.28
2022-11-19T16:29:19.085Z,7.35
2022-11-19T16:31:50.503Z,7.27
2022-11-19T16:34:23.442Z,7.31
2022-11-19T16:36:52.452Z,7.26
2022-11-19T16:39:23.214Z,7.27
2022-11-19T16:42:14.097Z,7.25
2022-11-19T16:44:44.252Z,7.20
2022-11-19T16:47:22.482Z,7.20
2022-11-19T16:50:00.744Z,7.17
2022-11-19T16:52:43.272Z,7.07
2022-11-19T16:55:40.531Z,7.08
2022-11-19T16:58:16.557Z,7.03
2022-11-19T17:00:49.640Z,7.05
2022-11-19T17:03:30.078Z,7.03
2022-11-19T17:05:59.755Z,7.01
2022-11-19T17:08:30.983Z,6.97
2022-11-19T17:11:29.851Z,6.87
2022-11-19T17:13:57.502Z,6.86
2022-11-19T17:16:25.646Z,6.88
2022-11-19T17:18:54.682Z,6.87
2022-11-19T17:21:26.244Z,6.88
2022-11-19T17:23:54.518Z,6.83
2022-11-19T17:26:25.660Z,6.79
2022-11-19T17:28:58.634Z,6.77
2022-11-19T17:31:28.102Z,6.72
2022-11-19T17:34:00.632Z,6.71
2022-11-19T17:36:28.302Z,6.71
2022-11-19T17:38:56.024Z,6.70
2022-11-19T17:41:42.620Z,6.63
2022-11-19T17:44:30.324Z,6.66
2022-11-19T17:46:58.075Z,6.67
2022-11-19T17:49:27.124Z,6.63
2022-11-19T17:51:55.331Z,6.57
2022-11-19T17:54:23.974Z,6.55
2022-11-19T17:56:51.780Z,6.51
2022-11-19T17:59:19.455Z,6.39
2022-11-19T18:01:47.523Z,6.37
2022-11-19T18:04:15.340Z,6.21
2022-11-19T18:06:44.434Z,6.02
2022-11-19T18:09:12.249Z,6.07
2022-11-19T18:11:40.454Z,5.96
2022-11-19T18:14:10.039Z,6.04
2022-11-19T18:16:39.977Z,6.06
2022-11-19T18:19:12.624Z,5.90
2022-11-19T18:21:41.632Z,5.91
2022-11-19T18:24:13.473Z,5.96
2022-11-19T18:26:41.479Z,5.82
2022-11-19T18:29:09.403Z,5.94
2022-11-19T18:31:43.614Z,5.92
2022-11-19T18:34:15.246Z,5.94
2022-11-19T18:36:45.449Z,5.88
2022-11-19T18:39:14.507Z,5.81
2022-11-19T18:41:42.441Z,5.86
2022-11-19T18:44:31.721Z,5.81
2022-11-19T18:46:59.867Z,5.74
2022-11-19T18:49:27.778Z,5.72
2022-11-19T18:51:55.489Z,5.66
2022-11-19T18:54:24.482Z,5.68
2022-11-19T18:56:52.396Z,5.64
2022-11-19T18:59:20.268Z,5.64
2022-11-19T19:01:48.332Z,5.60
2022-11-19T19:04:16.761Z,5.63
2022-11-19T19:06:44.480Z,5.64
2022-11-19T19:09:12.112Z,5.67
2022-11-19T19:11:58.693Z,5.63
2022-11-19T19:14:26.387Z,5.67
2022-11-19T19:16:54.056Z,5.57
2022-11-19T19:19:21.911Z,5.52
2022-11-19T19:21:49.874Z,5.50
2022-11-19T19:24:17.808Z,5.48
2022-11-19T19:26:46.886Z,5.37
2022-11-19T19:29:14.682Z,5.40
2022-11-19T19:31:42.332Z,5.33
2022-11-19T19:34:09.992Z,5.30
2022-11-19T19:36:37.781Z,5.26
2022-11-19T19:39:05.627Z,5.29
2022-11-19T19:41:33.415Z,5.22
2022-11-19T19:44:04.412Z,5.27
2022-11-19T19:46:33.425Z,5.24
2022-11-19T19:49:01.194Z,5.24
2022-11-19T19:51:30.767Z,5.28
2022-11-19T19:53:58.472Z,5.28
2022-11-19T19:56:28.352Z,5.24
2022-11-19T19:58:57.887Z,5.21
2022-11-19T20:01:28.508Z,5.22
2022-11-19T20:04:01.636Z,5.25
2022-11-19T20:06:30.124Z,5.25
2022-11-19T20:08:57.840Z,5.27
2022-11-19T20:11:27.043Z,5.31
2022-11-19T20:13:56.166Z,5.36
2022-11-19T20:16:25.463Z,5.39
2022-11-19T20:18:55.693Z,5.40
2022-11-19T20:21:25.440Z,5.41
2022-11-19T20:23:53.624Z,5.43
2022-11-19T20:26:24.093Z,5.46
2022-11-19T20:28:55.624Z,5.46
2022-11-19T20:31:23.396Z,5.44
2022-11-19T20:33:55.809Z,5.38
2022-11-19T20:36:26.061Z,5.46
2022-11-19T20:38:54.266Z,5.40
2022-11-19T20:41:41.784Z,5.46
2022-11-19T20:44:21.809Z,5.47
2022-11-19T20:46:51.918Z,5.45
2022-11-19T20:49:23.651Z,5.48
2022-11-19T20:51:52.688Z,5.41
2022-11-19T20:54:22.251Z,5.44
2022-11-19T20:56:50.906Z,5.37
2022-11-19T20:59:19.710Z,5.39
2022-11-19T21:01:49.674Z,5.33
2022-11-19T21:04:17.732Z,5.44
2022-11-19T21:06:47.264Z,5.45
2022-11-19T21:09:15.817Z,5.47
2022-11-19T21:11:44.180Z,5.49
2022-11-19T21:14:12.024Z,5.50
2022-11-19T21:16:39.766Z,5.52
2022-11-19T21:19:07.487Z,5.50
2022-11-19T21:21:35.409Z,5.46
2022-11-19T21:24:04.871Z,5.40
2022-11-19T21:26:32.634Z,5.39
2022-11-19T21:29:01.401Z,5.33
2022-11-19T21:31:39.396Z,5.30
2022-11-19T21:34:08.606Z,5.24
2022-11-19T21:36:36.730Z,5.18
2022-11-19T21:39:07.049Z,5.13
2022-11-19T21:41:35.521Z,5.05
2022-11-19T21:44:03.878Z,4.99
2022-11-19T21:46:32.016Z,4.96
2022-11-19T21:49:00.002Z,4.87
2022-11-19T21:51:27.662Z,4.79
2022-11-19T21:53:56.022Z,4.70
2022-11-19T21:56:26.071Z,4.64
2022-11-19T21:58:53.763Z,4.61
2022-11-19T22:01:22.343Z,4.54
2022-11-19T22:03:50.011Z,4.49
2022-11-19T22:06:17.731Z,4.43
2022-11-19T22:08:45.666Z,4.39
2022-11-19T22:11:36.343Z,4.37
2022-11-19T22:14:07.268Z,4.35
2022-11-19T22:16:37.045Z,4.42
2022-11-19T22:19:05.587Z,4.41
2022-11-19T22:21:33.863Z,4.38
2022-11-19T22:24:01.618Z,4.39
2022-11-19T22:26:29.273Z,4.44
2022-11-19T22:28:57.368Z,4.43
2022-11-19T22:31:27.114Z,4.48
2022-11-19T22:33:55.529Z,4.49
2022-11-19T22:36:24.237Z,4.54
2022-11-19T22:38:52.765Z,4.57
2022-11-19T22:41:22.380Z,4.60
2022-11-19T22:43:50.675Z,4.60
2022-11-19T22:46:19.437Z,4.66
2022-11-19T22:48:49.220Z,4.65
2022-11-19T22:51:18.765Z,4.66
2022-11-19T22:53:46.689Z,4.72
2022-11-19T22:56:16.122Z,4.73
2022-11-19T23:03:57.155Z,4.74
2022-11-19T23:06:25.517Z,4.80
2022-11-19T23:08:53.741Z,4.87
2022-11-19T23:11:37.655Z,4.87
2022-11-19T23:14:05.545Z,4.90
2022-11-19T23:16:33.293Z,4.94
2022-11-19T23:19:02.452Z,4.97
2022-11-19T23:21:30.913Z,5.02
2022-11-19T23:23:59.756Z,5.05
2022-11-19T23:26:28.916Z,5.11
2022-11-19T23:28:56.903Z,5.10
2022-11-19T23:31:26.332Z,5.07
2022-11-19T23:33:59.067Z,5.12
2022-11-19T23:36:30.435Z,5.04
2022-11-19T23:38:58.812Z,5.08
2022-11-19T23:41:26.851Z,5.02
2022-11-19T23:43:55.655Z,5.07
2022-11-19T23:46:25.346Z,5.11
2022-11-19T23:48:55.022Z,5.06
2022-11-19T23:51:25.118Z,5.09
2022-11-19T23:53:54.553Z,5.05
2022-11-19T23:56:23.846Z,5.08
2022-11-19T23:58:52.305Z,5.10
